Time;durP1;ratioP1;P1;durP2;ratioP2;P2;SDS_P1;SDS_P2;PMS_P1;PMS_P2;Temp;Humidity;BMP_temperature;BMP_pressure;BME280_temperature;BME280_humidity;BME280_pressure;Samples;Min_cycle;Max_cycle;Signal;HPM_P1;HPM_P2
2021/12/22 00:00:14;;;;;;;28.33;11.15;;;5.40;99.90;;;;;;6155560;23;20368;-70
2021/12/22 00:02:48;;;;;;;32.33;12.65;;;5.40;99.90;;;;;;6156187;23;20113;-70
2021/12/22 00:05:23;;;;;;;23.45;11.43;;;5.40;99.90;;;;;;6156440;23;20029;-70
2021/12/22 00:07:51;;;;;;;31.58;11.13;;;5.40;99.90;;;;;;6156469;23;20014;-70
2021/12/22 00:10:19;;;;;;;25.73;11.05;;;5.40;99.90;;;;;;6156008;23;20356;-70
2021/12/22 00:12:48;;;;;;;37.78;10.68;;;5.50;99.90;;;;;;6156012;23;20040;-70
2021/12/22 00:15:15;;;;;;;36.00;12.60;;;5.50;99.90;;;;;;6154555;23;20002;-71
2021/12/22 00:17:45;;;;;;;30.33;10.90;;;5.50;99.90;;;;;;6156014;23;20087;-70
2021/12/22 00:20:14;;;;;;;24.58;11.07;;;5.50;99.90;;;;;;6156014;23;20002;-63
2021/12/22 00:22:41;;;;;;;33.72;10.35;;;5.50;99.90;;;;;;6155935;23;20335;-63
2021/12/22 00:25:08;;;;;;;20.67;9.50;;;5.50;99.90;;;;;;6156121;23;20009;-63
2021/12/22 00:27:35;;;;;;;23.45;9.80;;;5.50;99.90;;;;;;6155940;23;20005;-63
2021/12/22 00:30:02;;;;;;;26.73;9.98;;;5.50;99.90;;;;;;6156151;23;20006;-63
2021/12/22 00:32:31;;;;;;;27.02;10.52;;;5.50;99.90;;;;;;6157882;23;20432;-63
2021/12/22 00:34:57;;;;;;;32.20;11.23;;;5.50;99.90;;;;;;6157793;23;20009;-63
2021/12/22 00:37:32;;;;;;;30.35;9.73;;;5.50;99.90;;;;;;6157759;23;20431;-63
2021/12/22 00:39:59;;;;;;;25.08;10.25;;;5.50;99.90;;;;;;6157835;23;20012;-63
2021/12/22 00:42:26;;;;;;;25.33;8.90;;;5.50;99.90;;;;;;6157612;23;20009;-63
2021/12/22 00:44:54;;;;;;;31.70;9.95;;;5.60;99.90;;;;;;6157709;23;20064;-63
2021/12/22 00:47:25;;;;;;;20.45;9.50;;;5.50;99.90;;;;;;6157679;23;20005;-62
2021/12/22 00:49:53;;;;;;;27.08;9.95;;;5.50;99.90;;;;;;6157595;23;20006;-63
2021/12/22 00:52:19;;;;;;;27.60;10.77;;;5.50;99.90;;;;;;6157597;23;20077;-63
2021/12/22 00:54:46;;;;;;;24.38;11.25;;;5.50;99.90;;;;;;6157458;23;20005;-63
2021/12/22 00:57:15;;;;;;;36.90;11.75;;;5.50;99.90;;;;;;6157502;23;20009;-63
2021/12/22 00:59:43;;;;;;;27.40;12.10;;;5.50;99.90;;;;;;6157609;23;20371;-63
2021/12/22 01:02:11;;;;;;;28.40;12.07;;;5.50;99.90;;;;;;6157047;23;20024;-63
2021/12/22 01:04:39;;;;;;;21.33;10.25;;;5.50;99.90;;;;;;6157874;23;20060;-63
2021/12/22 01:07:11;;;;;;;27.73;10.57;;;5.50;99.90;;;;;;6157444;23;20070;-63
2021/12/22 01:09:38;;;;;;;32.35;11.38;;;5.50;99.90;;;;;;6157507;23;20014;-63
2021/12/22 01:12:07;;;;;;;28.65;12.25;;;5.40;99.90;;;;;;6157421;23;20006;-63
2021/12/22 01:14:34;;;;;;;33.03;12.50;;;5.40;99.90;;;;;;6157547;23;20431;-63
2021/12/22 01:17:06;;;;;;;33.47;11.85;;;5.40;99.90;;;;;;6157340;23;20313;-63
2021/12/22 01:19:44;;;;;;;25.73;11.20;;;5.40;99.90;;;;;;6157085;23;20005;-62
2021/12/22 01:22:46;;;;;;;30.83;10.82;;;5.40;99.90;;;;;;6157561;23;20048;-63
2021/12/22 01:25:22;;;;;;;25.35;9.98;;;5.40;99.90;;;;;;6125549;23;20516;-62
2021/12/22 01:27:52;;;;;;;29.83;11.02;;;5.40;99.90;;;;;;6125576;23;20002;-63
2021/12/22 01:30:26;;;;;;;24.23;11.27;;;5.40;99.90;;;;;;6125672;23;20412;-62
2021/12/22 01:32:57;;;;;;;28.35;10.70;;;5.40;99.90;;;;;;6125358;23;20018;-63
2021/12/22 01:35:32;;;;;;;28.30;11.48;;;5.30;99.90;;;;;;6125577;23;20018;-62
2021/12/22 01:37:59;;;;;;;29.10;12.30;;;5.30;99.90;;;;;;6125251;23;20013;-62
2021/12/22 01:40:26;;;;;;;30.60;11.25;;;5.30;99.90;;;;;;6125294;23;20014;-62
2021/12/22 01:42:58;;;;;;;28.05;11.60;;;5.30;99.90;;;;;;6125050;23;20037;-62
2021/12/22 01:51:44;;;;;;;30.13;11.38;;;5.40;99.90;;;;;;6123790;23;20021;-62
2021/12/22 01:54:27;;;;;;;29.33;11.60;;;5.30;99.90;;;;;;6123815;23;20495;-63
2021/12/22 01:57:00;;;;;;;24.67;11.07;;;5.40;99.90;;;;;;6148448;23;20009;-63
2021/12/22 01:59:28;;;;;;;26.52;10.55;;;5.30;99.90;;;;;;6156676;23;20010;-63
2021/12/22 02:02:00;;;;;;;28.65;11.25;;;5.30;99.90;;;;;;6156473;23;20024;-63
2021/12/22 02:04:27;;;;;;;33.97;10.07;;;5.30;99.90;;;;;;6157345;23;20012;-62
2021/12/22 02:06:53;;;;;;;25.48;10.95;;;5.30;99.90;;;;;;6156823;23;20016;-63
2021/12/22 02:10:00;;;;;;;29.48;10.90;;;5.30;99.90;;;;;;6156920;23;20552;-62
2021/12/22 02:12:29;;;;;;;24.08;10.38;;;5.40;99.90;;;;;;6156336;23;20335;-63
2021/12/22 02:14:56;;;;;;;34.35;12.05;;;5.40;99.90;;;;;;6156491;23;20020;-62
2021/12/22 02:17:26;;;;;;;26.83;11.52;;;5.50;99.90;;;;;;6156768;23;20014;-62
2021/12/22 02:19:53;;;;;;;24.73;11.23;;;5.50;99.90;;;;;;6157030;23;20017;-62
2021/12/22 02:22:20;;;;;;;28.95;10.38;;;5.50;99.90;;;;;;6156644;23;20017;-62
2021/12/22 02:25:04;;;;;;;34.10;10.25;;;5.50;99.90;;;;;;6156832;23;20021;-63
2021/12/22 02:27:37;;;;;;;30.48;10.82;;;5.50;99.90;;;;;;6156747;23;20006;-63
2021/12/22 02:30:06;;;;;;;25.60;10.85;;;5.50;99.90;;;;;;6156718;23;20001;-62
2021/12/22 02:35:27;;;;;;;24.17;9.95;;;5.50;99.90;;;;;;6154418;23;20088;-62
2021/12/22 02:37:54;;;;;;;24.35;10.32;;;5.50;99.90;;;;;;6157076;23;20060;-62
2021/12/22 02:40:33;;;;;;;32.92;11.23;;;5.40;99.90;;;;;;6156515;23;20029;-62
2021/12/22 02:43:05;;;;;;;24.80;9.48;;;5.40;99.90;;;;;;6154976;23;20020;-62
2021/12/22 02:45:34;;;;;;;25.38;9.85;;;5.50;99.90;;;;;;6156832;23;20013;-62
2021/12/22 02:48:01;;;;;;;16.92;8.15;;;5.50;99.90;;;;;;6156501;23;20039;-62
2021/12/22 02:50:28;;;;;;;21.42;8.45;;;5.50;99.90;;;;;;6156482;23;20013;-63
2021/12/22 02:53:16;;;;;;;16.52;7.32;;;5.60;99.90;;;;;;6156116;23;20443;-62
2021/12/22 02:58:19;;;;;;;17.75;6.93;;;5.60;99.90;;;;;;6156549;23;20390;-62
2021/12/22 03:01:05;;;;;;;21.20;8.27;;;5.60;99.90;;;;;;6156256;23;20463;-62
2021/12/22 03:06:10;;;;;;;17.10;7.85;;;5.70;99.90;;;;;;6156309;23;20085;-62
2021/12/22 03:08:37;;;;;;;21.88;8.43;;;5.60;99.90;;;;;;6156292;23;20017;-62
2021/12/22 03:11:04;;;;;;;21.02;7.85;;;5.60;99.90;;;;;;6156212;23;20005;-62
2021/12/22 03:13:31;;;;;;;20.90;7.50;;;5.60;99.90;;;;;;6156258;23;20009;-62
2021/12/22 03:16:01;;;;;;;19.48;7.85;;;5.60;99.90;;;;;;6156189;23;20013;-62
2021/12/22 03:18:28;;;;;;;23.38;9.27;;;5.50;99.90;;;;;;6157288;23;20006;-63
2021/12/22 03:21:04;;;;;;;19.00;8.68;;;5.50;99.90;;;;;;6156174;23;20009;-63
2021/12/22 03:23:31;;;;;;;25.73;8.80;;;5.60;99.90;;;;;;6156381;23;20379;-62
2021/12/22 03:25:58;;;;;;;20.20;7.60;;;5.60;99.90;;;;;;6156646;23;20002;-62
2021/12/22 03:28:29;;;;;;;30.70;9.32;;;5.60;99.90;;;;;;6156397;23;20076;-63
2021/12/22 03:30:59;;;;;;;22.05;8.48;;;5.60;99.90;;;;;;6156236;23;20040;-63
2021/12/22 03:33:25;;;;;;;20.95;7.97;;;5.60;99.90;;;;;;6156559;23;20055;-62
2021/12/22 03:35:53;;;;;;;18.73;8.05;;;5.60;99.90;;;;;;6156131;23;20009;-63
2021/12/22 03:38:19;;;;;;;19.08;8.43;;;5.60;99.90;;;;;;6156083;23;20021;-62
2021/12/22 03:40:46;;;;;;;22.05;9.60;;;5.60;99.90;;;;;;6156061;23;20077;-62
2021/12/22 03:43:13;;;;;;;24.08;9.35;;;5.50;99.90;;;;;;6156155;23;20371;-62
2021/12/22 03:45:39;;;;;;;20.98;9.98;;;5.50;99.90;;;;;;6156148;23;20024;-62
2021/12/22 03:48:06;;;;;;;39.00;10.10;;;5.50;99.90;;;;;;6156460;23;20037;-62
2021/12/22 03:50:32;;;;;;;33.70;10.60;;;5.50;99.90;;;;;;6156261;23;20001;-62
2021/12/22 03:52:59;;;;;;;26.70;9.05;;;5.50;99.90;;;;;;6156216;23;20016;-63
2021/12/22 03:55:26;;;;;;;23.10;9.00;;;5.50;99.90;;;;;;6156061;23;20068;-63
2021/12/22 03:57:53;;;;;;;24.90;9.18;;;5.50;99.90;;;;;;6156109;23;20021;-62
2021/12/22 04:00:20;;;;;;;17.60;8.13;;;5.60;99.90;;;;;;6155721;23;20002;-63
2021/12/22 04:02:46;;;;;;;17.52;8.18;;;5.60;99.90;;;;;;6155879;23;20022;-63
2021/12/22 04:05:19;;;;;;;18.60;7.80;;;5.60;99.90;;;;;;6157335;23;20010;-62
2021/12/22 04:07:46;;;;;;;22.08;7.75;;;5.70;99.90;;;;;;6157943;23;20013;-62
2021/12/22 04:10:22;;;;;;;21.15;7.95;;;5.60;99.90;;;;;;6157745;23;20486;-62
2021/12/22 04:12:55;;;;;;;14.68;7.28;;;5.60;99.90;;;;;;6158044;23;20002;-62
2021/12/22 04:15:25;;;;;;;18.20;8.20;;;5.60;99.90;;;;;;6157914;23;20005;-63
2021/12/22 04:17:53;;;;;;;15.85;6.68;;;5.60;99.90;;;;;;6157797;23;20237;-63
2021/12/22 04:20:19;;;;;;;18.63;7.78;;;5.60;99.90;;;;;;6156413;23;20088;-62
2021/12/22 04:22:49;;;;;;;17.73;8.07;;;5.60;99.90;;;;;;6157872;23;20092;-62
2021/12/22 04:25:21;;;;;;;14.38;7.53;;;5.60;99.90;;;;;;6157991;23;20005;-63
2021/12/22 04:27:56;;;;;;;24.50;8.45;;;5.60;99.90;;;;;;6157788;23;20474;-63
2021/12/22 04:30:25;;;;;;;20.33;7.43;;;5.60;99.90;;;;;;6155798;23;20355;-62
2021/12/22 04:32:52;;;;;;;22.63;7.90;;;5.60;99.90;;;;;;6157506;23;20082;-63
2021/12/22 04:35:22;;;;;;;18.45;7.90;;;5.60;99.90;;;;;;6158169;23;20032;-62
2021/12/22 04:37:48;;;;;;;18.38;7.78;;;5.60;99.90;;;;;;6157881;23;20012;-62
2021/12/22 04:40:15;;;;;;;15.82;6.30;;;5.60;99.90;;;;;;6157978;23;20005;-62
2021/12/22 04:42:43;;;;;;;15.98;7.78;;;5.60;99.90;;;;;;6157659;23;20020;-63
2021/12/22 04:45:11;;;;;;;17.75;6.45;;;5.60;99.90;;;;;;6157705;23;20089;-63
2021/12/22 04:47:38;;;;;;;17.30;6.88;;;5.50;99.90;;;;;;6157711;23;20010;-62
2021/12/22 04:50:18;;;;;;;20.90;7.18;;;5.60;99.90;;;;;;6157759;23;20454;-62
2021/12/22 04:52:58;;;;;;;23.25;6.88;;;5.60;99.90;;;;;;6157445;23;20028;-62
2021/12/22 04:55:27;;;;;;;16.98;7.25;;;5.60;99.90;;;;;;6157831;23;20006;-62
2021/12/22 04:57:56;;;;;;;17.02;7.25;;;5.60;99.90;;;;;;6157550;23;20006;-62
2021/12/22 05:00:26;;;;;;;15.43;6.63;;;5.60;99.90;;;;;;6157231;23;20343;-62
2021/12/22 05:02:55;;;;;;;18.55;7.13;;;5.60;99.90;;;;;;6157420;23;20518;-62
2021/12/22 05:05:22;;;;;;;18.55;6.72;;;5.60;99.90;;;;;;6157552;23;20010;-62
2021/12/22 05:07:48;;;;;;;15.05;7.22;;;5.50;99.90;;;;;;6157430;23;20428;-62
2021/12/22 05:10:17;;;;;;;23.73;7.97;;;5.60;99.90;;;;;;6157600;23;20005;-62
2021/12/22 05:12:44;;;;;;;21.27;7.88;;;5.60;99.90;;;;;;6157467;23;20025;-62
2021/12/22 05:15:10;;;;;;;17.25;7.15;;;5.60;99.90;;;;;;6157803;23;20033;-63
2021/12/22 05:20:12;;;;;;;16.73;7.05;;;5.60;99.90;;;;;;6157791;23;20002;-63
2021/12/22 05:22:47;;;;;;;18.08;7.07;;;5.60;99.90;;;;;;6157659;23;20018;-63
2021/12/22 05:25:14;;;;;;;20.70;8.07;;;5.50;99.90;;;;;;6157260;23;20367;-63
2021/12/22 05:27:41;;;;;;;18.35;7.57;;;5.50;99.90;;;;;;6157197;23;20056;-63
2021/12/22 05:30:11;;;;;;;22.33;8.05;;;5.50;99.90;;;;;;6157352;23;20010;-63
2021/12/22 05:32:39;;;;;;;30.27;9.90;;;5.50;99.90;;;;;;6157276;23;20002;-63
2021/12/22 05:35:10;;;;;;;27.70;10.57;;;5.50;99.90;;;;;;6157539;23;20447;-63
2021/12/22 05:37:41;;;;;;;33.17;10.70;;;5.50;99.90;;;;;;6157156;23;20012;-63
2021/12/22 05:40:09;;;;;;;37.45;10.45;;;5.50;99.90;;;;;;6157217;23;20463;-63
2021/12/22 05:42:36;;;;;;;19.73;8.00;;;5.50;99.90;;;;;;6155662;23;20024;-63
2021/12/22 05:45:05;;;;;;;22.10;7.82;;;5.60;99.90;;;;;;6157069;23;20021;-63
2021/12/22 05:47:32;;;;;;;17.00;7.15;;;5.50;99.90;;;;;;6157162;23;20009;-63
2021/12/22 05:50:00;;;;;;;20.10;8.20;;;5.50;99.90;;;;;;6157294;23;19997;-63
2021/12/22 05:52:26;;;;;;;30.77;9.65;;;5.50;99.90;;;;;;6157096;23;20304;-62
2021/12/22 05:54:53;;;;;;;23.98;9.30;;;5.60;99.90;;;;;;6156890;23;20010;-62
2021/12/22 05:57:20;;;;;;;24.95;9.23;;;5.50;99.90;;;;;;6157110;23;20006;-62
2021/12/22 05:59:47;;;;;;;18.98;8.57;;;5.50;99.90;;;;;;6157538;23;20006;-63
2021/12/22 06:02:13;;;;;;;23.02;8.75;;;5.50;99.90;;;;;;6156459;23;20029;-62
2021/12/22 06:04:40;;;;;;;26.60;7.60;;;5.40;99.90;;;;;;6155480;23;20006;-63
2021/12/22 06:07:06;;;;;;;21.25;7.93;;;5.40;99.90;;;;;;6157013;23;20060;-63
2021/12/22 06:09:33;;;;;;;18.63;7.15;;;5.40;99.90;;;;;;6156936;23;20010;-62
2021/12/22 06:11:59;;;;;;;14.55;7.18;;;5.40;99.90;;;;;;6156870;23;20016;-62
2021/12/22 06:14:26;;;;;;;20.30;8.43;;;5.50;99.90;;;;;;6156837;23;20036;-63
2021/12/22 06:16:52;;;;;;;15.63;7.93;;;5.50;99.90;;;;;;6156754;23;20012;-63
2021/12/22 06:19:20;;;;;;;16.67;7.15;;;5.50;99.90;;;;;;6155293;23;20052;-63
2021/12/22 06:21:48;;;;;;;15.40;6.70;;;5.50;99.90;;;;;;6156644;23;20017;-63
2021/12/22 06:24:14;;;;;;;15.02;6.95;;;5.50;99.90;;;;;;6156843;23;20043;-63
2021/12/22 06:26:41;;;;;;;18.40;7.53;;;5.50;99.90;;;;;;6155267;23;20009;-63
2021/12/22 06:29:07;;;;;;;17.55;6.85;;;5.60;99.90;;;;;;6156458;23;20017;-63
2021/12/22 06:31:34;;;;;;;15.65;7.25;;;5.60;99.90;;;;;;6156704;23;20056;-63
2021/12/22 06:34:03;;;;;;;14.70;6.82;;;5.60;99.90;;;;;;6157356;23;20009;-63
2021/12/22 06:36:32;;;;;;;33.63;10.07;;;5.60;99.90;;;;;;6156445;23;20387;-63
2021/12/22 06:38:59;;;;;;;24.58;9.65;;;5.70;99.90;;;;;;6156527;23;20420;-63
2021/12/22 06:41:31;;;;;;;16.70;6.97;;;5.70;99.90;;;;;;6157380;23;20021;-63
2021/12/22 06:43:58;;;;;;;19.73;7.20;;;5.60;99.90;;;;;;6155231;23;20376;-63
2021/12/22 06:46:28;;;;;;;20.67;8.50;;;5.60;99.90;;;;;;6156362;23;20016;-63
2021/12/22 06:48:55;;;;;;;12.25;6.07;;;5.70;99.90;;;;;;6156506;23;20060;-63
2021/12/22 06:51:21;;;;;;;14.45;6.22;;;5.70;99.90;;;;;;6156346;23;20457;-63
2021/12/22 06:53:48;;;;;;;15.98;6.43;;;5.70;99.90;;;;;;6156453;23;20017;-63
2021/12/22 06:56:18;;;;;;;13.13;5.88;;;5.70;99.90;;;;;;6154991;23;20056;-63
2021/12/22 06:58:44;;;;;;;16.83;7.65;;;5.90;99.90;;;;;;6156485;23;20056;-63
2021/12/22 07:01:17;;;;;;;11.73;6.03;;;5.90;99.90;;;;;;6156869;23;20021;-63
2021/12/22 07:03:44;;;;;;;29.27;8.30;;;6.00;99.90;;;;;;6156642;23;20020;-63
2021/12/22 07:06:10;;;;;;;15.95;6.75;;;6.00;99.90;;;;;;6156871;23;20009;-63
2021/12/22 07:08:37;;;;;;;15.90;7.20;;;6.00;99.90;;;;;;6154741;23;20017;-63
2021/12/22 07:11:04;;;;;;;19.08;7.28;;;6.00;99.90;;;;;;6156897;23;20006;-63
2021/12/22 07:13:31;;;;;;;13.25;6.15;;;6.10;99.90;;;;;;6156483;23;20032;-63
2021/12/22 07:15:58;;;;;;;14.32;6.55;;;6.10;99.90;;;;;;6156342;23;20006;-63
2021/12/22 07:18:25;;;;;;;13.55;7.10;;;6.10;99.90;;;;;;6156729;23;20009;-63
2021/12/22 07:20:52;;;;;;;17.73;6.03;;;6.20;99.90;;;;;;6156209;23;20024;-63
2021/12/22 07:23:18;;;;;;;13.27;6.63;;;6.30;99.90;;;;;;6156463;23;20005;-63
2021/12/22 07:25:45;;;;;;;22.45;9.18;;;6.40;99.90;;;;;;6156705;23;20129;-63
2021/12/22 07:28:11;;;;;;;29.60;8.48;;;6.40;99.90;;;;;;6156216;23;20012;-63
2021/12/22 07:30:38;;;;;;;13.85;6.88;;;6.30;99.90;;;;;;6156177;23;20009;-63
2021/12/22 07:33:05;;;;;;;11.45;5.72;;;6.40;99.90;;;;;;6157175;23;20014;-63
2021/12/22 07:35:34;;;;;;;11.27;5.82;;;6.40;99.90;;;;;;6154700;23;20009;-63
2021/12/22 07:38:30;;;;;;;20.30;6.38;;;6.40;99.90;;;;;;6156474;23;20332;-63
2021/12/22 07:40:58;;;;;;;10.65;5.57;;;6.50;99.90;;;;;;6156033;23;20045;-63
2021/12/22 07:43:26;;;;;;;17.15;5.22;;;6.70;99.90;;;;;;6156041;23;20376;-63
2021/12/22 07:45:53;;;;;;;13.45;4.95;;;6.70;99.90;;;;;;6156269;23;20033;-63
2021/12/22 07:48:20;;;;;;;10.07;5.28;;;6.80;99.90;;;;;;6156538;23;20327;-63
2021/12/22 07:50:47;;;;;;;12.38;5.90;;;6.90;99.90;;;;;;6156368;23;20006;-63
2021/12/22 07:53:14;;;;;;;18.10;6.60;;;6.90;99.90;;;;;;6156079;23;20009;-63
2021/12/22 07:55:40;;;;;;;17.15;6.15;;;7.00;99.90;;;;;;6156390;23;20076;-63
2021/12/22 07:58:07;;;;;;;14.02;5.25;;;7.10;99.90;;;;;;6156041;23;20367;-63
2021/12/22 08:00:36;;;;;;;13.13;5.70;;;7.20;99.90;;;;;;6155442;23;20005;-63
2021/12/22 08:03:03;;;;;;;11.95;6.55;;;7.20;99.90;;;;;;6156406;23;20014;-63
2021/12/22 08:05:33;;;;;;;13.70;6.22;;;7.20;99.90;;;;;;6155950;23;20012;-63
2021/12/22 08:08:00;;;;;;;22.95;6.28;;;7.40;99.90;;;;;;6155926;23;20028;-63
2021/12/22 08:10:27;;;;;;;12.75;5.95;;;7.60;99.90;;;;;;6156023;23;20010;-63
2021/12/22 08:12:54;;;;;;;14.50;5.35;;;7.70;99.90;;;;;;6155928;23;20013;-63
2021/12/22 08:15:20;;;;;;;15.23;5.95;;;7.70;99.90;;;;;;6156069;23;20072;-63
2021/12/22 08:17:47;;;;;;;18.88;7.03;;;7.80;99.90;;;;;;6156035;23;20028;-63
2021/12/22 08:20:13;;;;;;;10.93;5.65;;;7.90;99.90;;;;;;6155955;23;20009;-63
2021/12/22 08:22:40;;;;;;;14.10;5.80;;;8.00;99.90;;;;;;6155816;23;20017;-64
2021/12/22 08:25:10;;;;;;;18.00;6.22;;;8.00;99.90;;;;;;6156127;23;20001;-63
2021/12/22 08:27:37;;;;;;;14.18;6.32;;;8.10;99.90;;;;;;6155997;23;20169;-63
2021/12/22 08:30:05;;;;;;;14.90;6.13;;;8.30;99.90;;;;;;6154474;23;20013;-64
2021/12/22 08:32:37;;;;;;;11.15;5.72;;;8.40;99.90;;;;;;6155775;23;20005;-63
2021/12/22 08:35:06;;;;;;;9.10;4.60;;;8.50;99.90;;;;;;6155805;23;20009;-64
2021/12/22 08:40:22;;;;;;;16.67;5.38;;;8.70;99.90;;;;;;6153815;23;20012;-67
